createdAt,value
2022-12-19T06:38:52.922Z,2.33
2022-12-19T06:45:56.912Z,2.67
2022-12-19T06:53:01.813Z,2.67
2022-12-19T07:00:04.299Z,2.15
2022-12-19T07:07:06.345Z,2.35
2022-12-19T07:14:08.211Z,6.50
2022-12-19T07:21:12.582Z,6.93
2022-12-19T07:28:14.320Z,6.88
2022-12-19T07:35:18.684Z,6.68
2022-12-19T07:42:21.407Z,4.90
2022-12-19T07:49:23.198Z,4.45
2022-12-19T07:56:25.078Z,3.75
2022-12-19T08:03:28.902Z,2.65
2022-12-19T08:10:30.953Z,2.85
2022-12-19T08:17:33.936Z,2.45
2022-12-19T08:24:35.775Z,2.25
2022-12-19T08:31:37.495Z,2.50
2022-12-19T08:38:42.033Z,2.33
2022-12-19T08:45:43.788Z,2.17
2022-12-19T08:52:45.632Z,2.67
2022-12-19T08:59:48.901Z,2.20
2022-12-19T09:06:51.460Z,1.92
2022-12-19T09:13:53.248Z,2.00
2022-12-19T09:20:55.596Z,2.17
2022-12-19T09:28:26.399Z,1.83
2022-12-19T09:35:27.031Z,2.22
2022-12-19T09:42:47.098Z,1.90
2022-12-19T09:49:51.123Z,2.03
2022-12-19T09:56:56.061Z,1.60
2022-12-19T10:04:08.520Z,1.98
2022-12-19T10:12:42.258Z,1.48
2022-12-19T10:18:57.886Z,2.10
2022-12-19T10:26:20.518Z,2.55
2022-12-19T10:33:33.445Z,1.80
2022-12-19T10:41:39.281Z,2.10
2022-12-19T10:48:45.735Z,1.80
2022-12-19T10:55:51.202Z,1.67
2022-12-19T11:03:26.548Z,2.00
2022-12-19T11:12:03.627Z,1.85
2022-12-19T11:27:50.961Z,1.98
2022-12-19T11:30:45.724Z,2.05
2022-12-19T11:33:17.701Z,2.10
2022-12-19T11:40:48.931Z,2.35
2022-12-19T11:48:23.473Z,2.00
2022-12-19T11:55:51.983Z,2.20
2022-12-19T12:03:34.641Z,2.08
2022-12-19T12:17:21.247Z,2.05
2022-12-19T12:31:26.566Z,1.90
2022-12-19T12:31:51.154Z,1.80
2022-12-19T12:35:31.720Z,1.98
2022-12-19T12:42:12.384Z,1.95
2022-12-19T12:49:34.738Z,1.85
2022-12-19T12:56:36.639Z,1.95
2022-12-19T13:03:42.286Z,1.60
2022-12-19T13:10:57.537Z,1.92
2022-12-19T13:18:31.299Z,2.30
2022-12-19T13:25:36.597Z,1.60
2022-12-19T13:32:41.396Z,1.88
2022-12-19T13:40:07.459Z,1.70
2022-12-19T13:47:13.136Z,1.58
2022-12-19T13:54:34.739Z,1.85
2022-12-19T14:01:37.392Z,1.70
2022-12-19T14:08:40.887Z,1.63
2022-12-19T14:15:46.148Z,1.75
2022-12-19T14:22:59.222Z,1.30
2022-12-19T14:30:31.083Z,1.15
2022-12-19T14:38:13.122Z,1.80
2022-12-19T14:51:51.650Z,1.98
2022-12-19T14:54:30.699Z,1.65
2022-12-19T14:59:59.455Z,1.70
2022-12-19T15:07:09.127Z,1.70
2022-12-19T15:14:56.430Z,1.60
2022-12-19T15:21:36.531Z,1.50
2022-12-19T15:28:41.504Z,1.60
2022-12-19T15:35:45.130Z,2.00
2022-12-19T15:42:49.297Z,1.67
2022-12-19T15:49:51.078Z,1.85
2022-12-19T15:56:55.516Z,1.90
2022-12-19T16:03:57.494Z,1.60
2022-12-19T16:11:01.673Z,1.98
2022-12-19T16:18:04.311Z,1.67
2022-12-19T16:25:06.349Z,1.77
2022-12-19T16:32:12.523Z,1.45
2022-12-19T16:39:14.807Z,1.50
2022-12-19T16:46:19.372Z,1.63
2022-12-19T16:53:21.252Z,1.90
2022-12-19T17:00:23.465Z,1.73
2022-12-19T17:07:32.135Z,2.17
2022-12-19T17:14:35.287Z,1.50
2022-12-19T17:21:37.312Z,1.63
2022-12-19T17:28:48.283Z,1.85
2022-12-19T17:35:50.202Z,1.70
2022-12-19T17:42:52.783Z,1.80
2022-12-19T17:49:56.681Z,2.00
2022-12-19T17:57:02.734Z,2.45
2022-12-19T18:04:05.567Z,2.40
2022-12-19T18:11:10.467Z,2.25
2022-12-19T18:18:27.827Z,2.53
2022-12-19T18:25:31.241Z,2.35
2022-12-19T18:32:32.985Z,2.00
2022-12-19T18:39:36.775Z,1.95
2022-12-19T18:46:42.175Z,1.85
2022-12-19T18:53:44.695Z,2.22
2022-12-19T19:00:48.683Z,2.13
2022-12-19T19:07:57.539Z,1.95
2022-12-19T19:15:01.835Z,2.33
2022-12-19T19:22:29.781Z,1.33
2022-12-19T19:29:41.255Z,1.60
2022-12-19T19:37:15.044Z,2.30
2022-12-19T19:44:18.398Z,2.53
2022-12-19T19:51:21.580Z,2.00
2022-12-19T19:58:24.580Z,1.90
2022-12-19T20:05:26.441Z,2.33
2022-12-19T20:12:28.154Z,2.47
2022-12-19T20:19:29.899Z,2.20
2022-12-19T20:26:33.057Z,2.30
2022-12-19T20:33:36.303Z,1.70
2022-12-19T20:40:38.143Z,2.10
2022-12-19T20:47:39.950Z,1.95
2022-12-19T20:54:42.967Z,1.95
2022-12-19T21:01:45.459Z,1.70
2022-12-19T21:08:47.406Z,1.70
2022-12-19T21:15:56.964Z,1.42
2022-12-19T21:22:58.766Z,1.80
2022-12-19T21:30:00.541Z,1.80
2022-12-19T21:37:02.307Z,1.90
2022-12-19T21:44:05.295Z,1.65
2022-12-19T21:51:08.226Z,1.70
2022-12-19T21:58:10.003Z,1.85
2022-12-19T22:05:11.743Z,1.27
2022-12-19T22:12:13.607Z,2.13
2022-12-19T22:19:17.155Z,1.45
2022-12-19T22:26:21.582Z,1.55
2022-12-19T22:33:23.341Z,1.45
2022-12-19T22:40:25.125Z,1.50
2022-12-19T22:47:26.903Z,1.70
2022-12-19T22:54:28.759Z,1.67
2022-12-19T23:01:33.497Z,1.70
2022-12-19T23:08:35.606Z,1.35
2022-12-19T23:15:37.334Z,1.30
2022-12-19T23:22:39.060Z,1.40
2022-12-19T23:29:40.842Z,1.13
2022-12-19T23:44:04.406Z,1.30
2022-12-19T23:51:08.707Z,1.35
2022-12-19T23:58:15.469Z,1.40
